createdAt,value
2018-12-15T00:00:51.499Z,-0.50
2018-12-15T00:03:18.886Z,-0.40
2018-12-15T00:05:46.317Z,-0.50
2018-12-15T00:08:13.711Z,-0.50
2018-12-15T00:10:41.149Z,-0.40
2018-12-15T00:13:08.562Z,-0.50
2018-12-15T00:15:35.979Z,-0.50
2018-12-15T00:18:03.530Z,-0.40
2018-12-15T00:20:30.965Z,-0.40
2018-12-15T00:22:58.359Z,-0.50
2018-12-15T00:25:25.782Z,-0.50
2018-12-15T00:27:53.173Z,-0.40
2018-12-15T00:30:20.596Z,-0.50
2018-12-15T00:32:47.978Z,-0.50
2018-12-15T00:35:15.407Z,-0.50
2018-12-15T00:37:42.939Z,-0.50
2018-12-15T00:40:10.361Z,-0.60
2018-12-15T00:42:37.740Z,-0.60
2018-12-15T00:45:05.611Z,-0.50
2018-12-15T00:47:33.026Z,-0.50
2018-12-15T00:50:00.438Z,-0.50
2018-12-15T00:52:27.864Z,-0.40
2018-12-15T00:54:55.255Z,-0.40
2018-12-15T00:57:22.661Z,-0.40
2018-12-15T00:59:50.061Z,-0.60
2018-12-15T01:02:17.486Z,-0.50
2018-12-15T01:04:44.996Z,-0.50
2018-12-15T01:07:12.425Z,-0.40
2018-12-15T01:09:39.859Z,-0.40
2018-12-15T01:12:07.256Z,-0.30
2018-12-15T01:14:34.658Z,-0.40
2018-12-15T01:17:02.169Z,-0.40
2018-12-15T01:19:29.572Z,-0.30
2018-12-15T01:21:56.946Z,-0.40
2018-12-15T01:24:24.340Z,-0.50
2018-12-15T01:26:51.759Z,-0.50
2018-12-15T01:29:25.784Z,-0.50
2018-12-15T01:31:53.418Z,-0.50
2018-12-15T01:34:20.851Z,-0.50
2018-12-15T01:36:48.256Z,-0.40
2018-12-15T01:39:15.762Z,-0.50
2018-12-15T01:41:50.025Z,-0.40
2018-12-15T01:44:17.457Z,-0.40
2018-12-15T01:46:44.840Z,-0.40
2018-12-15T01:49:12.265Z,-0.40
2018-12-15T01:51:39.652Z,-0.40
2018-12-15T01:54:07.060Z,-0.40
2018-12-15T01:56:34.484Z,-0.50
2018-12-15T01:59:01.871Z,-0.50
2018-12-15T02:01:29.329Z,-0.40
2018-12-15T02:03:56.715Z,-0.40
2018-12-15T02:06:24.141Z,-0.50
2018-12-15T02:08:51.546Z,-0.50
2018-12-15T02:11:18.968Z,-0.60
2018-12-15T02:13:46.491Z,-0.60
2018-12-15T02:16:13.909Z,-0.60
2018-12-15T02:18:41.300Z,-0.60
2018-12-15T02:21:08.721Z,-0.50
2018-12-15T02:23:36.132Z,-0.40
2018-12-15T02:26:03.572Z,-0.40
2018-12-15T02:28:31.014Z,-0.40
2018-12-15T02:30:58.451Z,-0.40
2018-12-15T02:33:25.837Z,-0.30
2018-12-15T02:35:53.259Z,-0.30
2018-12-15T02:38:20.825Z,-0.20
2018-12-15T02:40:48.245Z,-0.20
2018-12-15T02:43:15.903Z,-0.20
2018-12-15T02:45:43.362Z,-0.30
2018-12-15T02:48:10.756Z,-0.40
2018-12-15T02:50:38.190Z,-0.50
2018-12-15T02:53:12.541Z,-0.50
2018-12-15T02:55:39.985Z,-0.50
2018-12-15T02:58:07.403Z,-0.70
2018-12-15T03:00:34.853Z,-0.70
2018-12-15T03:03:02.260Z,-0.60
2018-12-15T03:05:29.690Z,-0.60
2018-12-15T03:07:57.098Z,-0.60
2018-12-15T03:10:24.524Z,-0.50
2018-12-15T03:12:51.907Z,-0.50
2018-12-15T03:15:19.328Z,-0.60
2018-12-15T03:17:48.995Z,-0.60
2018-12-15T03:20:16.289Z,-0.70
2018-12-15T03:22:43.712Z,-0.70
2018-12-15T03:25:11.148Z,-0.60
2018-12-15T03:27:38.544Z,-0.60
2018-12-15T03:30:06.197Z,-0.50
2018-12-15T03:32:33.592Z,-0.60
2018-12-15T03:35:01.017Z,-0.60
2018-12-15T03:37:28.529Z,-0.60
2018-12-15T03:39:55.936Z,-0.50
2018-12-15T03:42:23.497Z,-0.60
2018-12-15T03:44:51.159Z,-0.70
2018-12-15T03:47:18.593Z,-0.60
2018-12-15T03:49:45.988Z,-0.60
2018-12-15T03:52:13.443Z,-0.60
2018-12-15T03:54:40.937Z,-0.50
2018-12-15T03:57:08.352Z,-0.40
2018-12-15T03:59:35.882Z,-0.50
2018-12-15T04:02:03.355Z,-0.50
2018-12-15T04:04:31.584Z,-0.50
2018-12-15T04:06:59.144Z,-0.50
2018-12-15T04:09:26.546Z,-0.40
2018-12-15T04:11:53.953Z,-0.50
2018-12-15T04:14:21.381Z,-0.50
2018-12-15T04:16:48.822Z,-0.60
2018-12-15T04:19:16.221Z,-0.60
2018-12-15T04:21:43.629Z,-0.60
2018-12-15T04:24:11.025Z,-0.70
2018-12-15T04:26:38.443Z,-0.70
2018-12-15T04:29:10.200Z,-0.60
2018-12-15T04:31:37.640Z,-0.70
2018-12-15T04:34:05.032Z,-0.50
2018-12-15T04:36:32.474Z,-0.50
2018-12-15T04:38:59.873Z,-0.40
2018-12-15T04:41:27.296Z,-0.50
2018-12-15T04:43:55.188Z,-0.50
2018-12-15T04:46:22.604Z,-0.40
2018-12-15T04:48:49.997Z,-0.50
2018-12-15T04:51:17.470Z,-0.50
2018-12-15T04:53:44.863Z,-0.60
2018-12-15T04:56:12.328Z,-0.50
2018-12-15T04:58:39.736Z,-0.50
2018-12-15T05:01:07.144Z,-0.60
2018-12-15T05:03:34.909Z,-0.50
2018-12-15T05:06:02.295Z,-0.60
2018-12-15T05:08:29.721Z,-0.60
2018-12-15T05:10:57.124Z,-0.60
2018-12-15T05:13:24.645Z,-0.60
2018-12-15T05:15:52.048Z,-0.60
2018-12-15T05:18:19.464Z,-0.70
2018-12-15T05:20:46.866Z,-0.60
2018-12-15T05:23:14.275Z,-0.60
2018-12-15T05:25:41.663Z,-0.70
2018-12-15T05:28:09.080Z,-0.70
2018-12-15T05:30:36.817Z,-0.70
2018-12-15T05:33:04.396Z,-0.50
2018-12-15T05:35:31.794Z,-0.50
2018-12-15T05:37:59.208Z,-0.50
2018-12-15T05:40:26.595Z,-0.40
2018-12-15T05:42:54.008Z,-0.50
2018-12-15T05:45:21.408Z,-0.60
2018-12-15T05:47:48.884Z,-0.50
2018-12-15T05:50:16.289Z,-0.50
2018-12-15T05:52:43.695Z,-0.60
2018-12-15T05:55:11.100Z,-0.60
2018-12-15T05:57:38.645Z,-0.60
2018-12-15T06:00:06.704Z,-0.60
2018-12-15T06:02:34.440Z,-0.60
2018-12-15T06:05:02.395Z,-0.60
2018-12-15T06:07:29.811Z,-0.70
2018-12-15T06:09:57.241Z,-0.60
2018-12-15T06:12:24.679Z,-0.50
2018-12-15T06:14:52.077Z,-0.60
2018-12-15T06:17:19.508Z,-0.50
2018-12-15T06:19:46.903Z,-0.60
2018-12-15T06:22:14.323Z,-0.50
2018-12-15T06:24:41.716Z,-0.50
2018-12-15T06:27:09.172Z,-0.50
2018-12-15T06:29:36.562Z,-0.40
2018-12-15T06:32:04.028Z,-0.40
2018-12-15T06:34:38.123Z,-0.40
2018-12-15T06:37:05.540Z,-0.40
2018-12-15T06:39:32.928Z,-0.50
2018-12-15T06:42:00.377Z,-0.50
2018-12-15T06:44:27.776Z,-0.50
2018-12-15T06:46:55.175Z,-0.50
2018-12-15T06:49:23.425Z,-0.50
2018-12-15T06:51:50.812Z,-0.40
2018-12-15T06:54:18.215Z,-0.30
2018-12-15T06:56:45.603Z,-0.30
2018-12-15T06:59:13.032Z,-0.40
2018-12-15T07:01:40.415Z,-0.30
2018-12-15T07:04:07.844Z,-0.40
2018-12-15T07:06:35.233Z,-0.50
2018-12-15T07:09:03.503Z,-0.50
2018-12-15T07:11:30.927Z,-0.50
2018-12-15T07:13:58.387Z,-0.50
2018-12-15T07:16:25.777Z,-0.50
2018-12-15T07:18:53.191Z,-0.60
2018-12-15T07:21:20.586Z,-0.50
2018-12-15T07:23:48.007Z,-0.50
2018-12-15T07:26:15.383Z,-0.50
2018-12-15T07:28:42.792Z,-0.50
2018-12-15T07:31:10.203Z,-0.60
2018-12-15T07:33:37.604Z,-0.50
2018-12-15T07:36:05.008Z,-0.50
2018-12-15T07:38:32.416Z,-0.40
2018-12-15T07:40:59.834Z,-0.30
2018-12-15T07:43:27.258Z,-0.30
2018-12-15T07:45:54.648Z,-0.50
2018-12-15T07:48:22.193Z,-0.40
2018-12-15T07:50:49.574Z,-0.30
2018-12-15T07:53:17.021Z,-0.40
2018-12-15T07:55:51.080Z,-0.40
2018-12-15T07:58:18.505Z,-0.40
2018-12-15T08:00:45.892Z,-0.40
2018-12-15T08:03:13.316Z,-0.40
2018-12-15T08:05:40.704Z,-0.30
2018-12-15T08:08:08.148Z,-0.40
2018-12-15T08:11:41.413Z,-0.30
2018-12-15T08:14:09.793Z,-0.30
2018-12-15T08:16:37.412Z,-0.40
2018-12-15T08:19:05.934Z,-0.30
2018-12-15T08:21:33.702Z,-0.30
2018-12-15T08:24:01.133Z,-0.30
2018-12-15T08:26:28.692Z,-0.30
2018-12-15T08:28:56.117Z,-0.20
2018-12-15T08:31:23.593Z,-0.20
2018-12-15T08:33:51.000Z,-0.20
2018-12-15T08:36:18.471Z,-0.20
2018-12-15T08:38:45.915Z,-0.20
2018-12-15T08:41:13.383Z,-0.20
2018-12-15T08:43:40.966Z,-0.10
2018-12-15T08:46:11.180Z,-0.10
2018-12-15T08:48:38.612Z,-0.20
2018-12-15T08:51:06.258Z,-0.10
2018-12-15T08:53:33.747Z,-0.10
2018-12-15T08:56:01.170Z,-0.20
2018-12-15T08:58:28.629Z,0.00
2018-12-15T09:00:56.012Z,0.10
2018-12-15T09:03:23.456Z,0.00
2018-12-15T09:05:50.860Z,0.00
2018-12-15T09:08:18.276Z,0.00
2018-12-15T09:10:45.699Z,0.00
2018-12-15T09:13:13.126Z,0.00
2018-12-15T09:15:40.525Z,0.00
2018-12-15T09:18:07.949Z,0.00
2018-12-15T09:20:35.464Z,0.10
2018-12-15T09:23:02.912Z,0.20
2018-12-15T09:25:30.304Z,0.40
2018-12-15T09:27:57.824Z,0.20
2018-12-15T09:30:25.381Z,0.10
2018-12-15T09:32:52.759Z,0.10
2018-12-15T09:35:20.183Z,0.10
2018-12-15T09:37:47.567Z,0.10
2018-12-15T09:40:15.005Z,0.10
2018-12-15T09:42:42.390Z,0.00
2018-12-15T09:45:09.929Z,0.10
2018-12-15T09:47:37.341Z,0.10
2018-12-15T09:50:04.944Z,0.20
2018-12-15T09:52:32.478Z,0.30
2018-12-15T09:54:59.929Z,0.20
2018-12-15T09:57:27.384Z,0.20
2018-12-15T09:59:54.800Z,0.10
2018-12-15T10:02:22.201Z,0.10
2018-12-15T10:04:49.645Z,0.30
2018-12-15T10:07:17.085Z,0.10
2018-12-15T10:09:44.531Z,0.10
2018-12-15T10:12:11.936Z,0.00
2018-12-15T10:14:39.848Z,0.20
2018-12-15T10:17:07.256Z,0.40
2018-12-15T10:19:34.685Z,0.30
2018-12-15T10:22:02.088Z,0.30
2018-12-15T10:24:29.516Z,0.30
2018-12-15T10:26:56.928Z,0.30
2018-12-15T10:29:30.180Z,0.30
2018-12-15T10:32:03.366Z,0.20
2018-12-15T10:34:30.809Z,0.20
2018-12-15T10:36:58.240Z,0.20
2018-12-15T10:39:25.675Z,0.20
2018-12-15T10:41:53.117Z,0.30
2018-12-15T10:44:20.562Z,0.30
2018-12-15T10:46:47.999Z,0.20
2018-12-15T10:49:15.656Z,0.20
2018-12-15T10:51:43.052Z,0.10
2018-12-15T10:54:10.494Z,0.40
2018-12-15T10:56:37.891Z,0.40
2018-12-15T10:59:05.359Z,0.30
2018-12-15T11:01:32.832Z,0.30
2018-12-15T11:04:00.868Z,0.30
2018-12-15T11:06:28.476Z,0.30
2018-12-15T11:08:55.947Z,0.40
2018-12-15T11:11:23.344Z,0.50
2018-12-15T11:13:50.791Z,0.50
2018-12-15T11:16:18.203Z,0.50
2018-12-15T11:18:45.616Z,0.50
2018-12-15T11:21:13.047Z,0.50
2018-12-15T11:23:40.449Z,0.40
2018-12-15T11:26:07.911Z,0.40
2018-12-15T11:28:35.315Z,0.30
2018-12-15T11:31:02.797Z,0.40
2018-12-15T11:33:30.201Z,0.20
2018-12-15T11:35:57.603Z,0.20
2018-12-15T11:38:25.027Z,0.60
2018-12-15T11:40:52.447Z,0.50
2018-12-15T11:43:19.861Z,0.40
2018-12-15T11:45:47.314Z,0.40
2018-12-15T11:48:14.975Z,0.40
2018-12-15T11:50:42.390Z,0.30
2018-12-15T11:53:09.788Z,0.30
2018-12-15T11:55:37.268Z,0.30
2018-12-15T11:58:04.667Z,0.20
2018-12-15T12:00:32.228Z,0.30
2018-12-15T12:02:59.632Z,0.30
2018-12-15T12:05:27.078Z,0.30
2018-12-15T12:07:54.486Z,0.20
2018-12-15T12:10:23.104Z,0.30
2018-12-15T12:12:50.534Z,0.30
2018-12-15T12:15:17.983Z,0.20
2018-12-15T12:17:45.456Z,0.40
2018-12-15T12:20:12.949Z,0.40
2018-12-15T12:22:40.364Z,0.50
2018-12-15T12:25:07.943Z,0.50
2018-12-15T12:27:35.347Z,0.50
2018-12-15T12:30:03.048Z,0.40
2018-12-15T12:32:30.460Z,0.50
2018-12-15T12:34:57.902Z,0.60
2018-12-15T12:37:25.325Z,0.30
2018-12-15T12:39:52.788Z,0.30
2018-12-15T12:42:20.183Z,0.30
2018-12-15T12:44:47.619Z,0.40
2018-12-15T12:47:15.099Z,0.40
2018-12-15T12:49:42.533Z,0.40
2018-12-15T12:52:09.939Z,0.50
2018-12-15T12:54:37.367Z,0.50
2018-12-15T12:57:06.731Z,0.50
2018-12-15T12:59:34.541Z,0.40
2018-12-15T13:02:02.294Z,0.40
2018-12-15T13:04:29.738Z,0.40
2018-12-15T13:06:57.128Z,0.50
2018-12-15T13:09:24.572Z,0.50
2018-12-15T13:11:51.955Z,0.40
2018-12-15T13:14:19.390Z,0.40
2018-12-15T13:16:46.948Z,0.40
2018-12-15T13:19:14.527Z,0.30
2018-12-15T13:21:41.924Z,0.30
2018-12-15T13:24:09.412Z,0.40
2018-12-15T13:26:36.847Z,0.30
2018-12-15T13:29:04.416Z,0.30
2018-12-15T13:31:31.847Z,0.20
2018-12-15T13:33:59.243Z,0.30
2018-12-15T13:36:26.808Z,0.30
2018-12-15T13:38:54.327Z,0.30
2018-12-15T13:41:21.790Z,0.30
2018-12-15T13:43:49.176Z,0.20
2018-12-15T13:46:16.735Z,0.10
2018-12-15T13:48:44.148Z,0.10
2018-12-15T13:51:11.613Z,0.10
2018-12-15T13:53:39.116Z,0.00
2018-12-15T13:56:06.672Z,0.10
2018-12-15T13:58:34.086Z,0.20
2018-12-15T14:01:01.541Z,0.10
2018-12-15T14:03:28.945Z,-0.10
2018-12-15T14:05:56.420Z,-0.10
2018-12-15T14:08:23.929Z,0.00
2018-12-15T14:10:51.495Z,0.10
2018-12-15T14:13:18.900Z,0.00
2018-12-15T14:15:46.382Z,0.10
2018-12-15T14:18:13.862Z,0.00
2018-12-15T14:20:41.337Z,-0.10
2018-12-15T14:23:08.735Z,-0.10
2018-12-15T14:25:36.212Z,-0.10
2018-12-15T14:28:03.637Z,-0.10
2018-12-15T14:30:31.093Z,0.00
2018-12-15T14:32:58.482Z,-0.10
2018-12-15T14:35:25.904Z,-0.10
2018-12-15T14:37:53.293Z,0.10
2018-12-15T14:40:20.756Z,0.10
2018-12-15T14:42:48.163Z,0.20
2018-12-15T14:45:15.607Z,0.10
2018-12-15T14:47:43.053Z,0.10
2018-12-15T14:50:10.638Z,0.00
2018-12-15T14:52:38.060Z,-0.10
2018-12-15T14:55:05.740Z,0.00
2018-12-15T14:57:33.163Z,0.10
2018-12-15T15:00:00.614Z,0.00
2018-12-15T15:02:28.112Z,0.00
2018-12-15T15:04:55.519Z,0.00
2018-12-15T15:07:22.993Z,0.00
2018-12-15T15:09:50.542Z,0.00
2018-12-15T15:12:18.024Z,-0.10
2018-12-15T15:14:45.416Z,0.00
2018-12-15T15:17:12.879Z,-0.10
2018-12-15T15:19:40.279Z,-0.10
2018-12-15T15:22:07.857Z,0.00
2018-12-15T15:24:35.251Z,-0.10
2018-12-15T15:27:02.696Z,-0.20
2018-12-15T15:29:30.095Z,-0.20
2018-12-15T15:31:57.558Z,-0.20
2018-12-15T15:34:25.026Z,0.00
2018-12-15T15:36:52.528Z,-0.10
2018-12-15T15:39:20.057Z,-0.20
2018-12-15T15:41:47.606Z,-0.20
2018-12-15T15:44:15.050Z,-0.10
2018-12-15T15:46:42.503Z,-0.10
2018-12-15T15:49:09.912Z,-0.20
2018-12-15T15:51:37.597Z,-0.30
2018-12-15T15:54:05.025Z,-0.40
2018-12-15T15:56:32.493Z,-0.30
2018-12-15T15:58:59.896Z,-0.40
2018-12-15T16:01:27.364Z,-0.40
2018-12-15T16:03:54.814Z,-0.30
2018-12-15T16:06:22.271Z,-0.40
2018-12-15T16:08:49.717Z,-0.40
2018-12-15T16:11:17.152Z,-0.40
2018-12-15T16:13:44.665Z,-0.50
2018-12-15T16:16:44.357Z,-0.50
2018-12-15T16:19:11.748Z,-0.50
2018-12-15T16:21:39.213Z,-0.50
2018-12-15T16:24:06.623Z,-0.50
2018-12-15T16:26:34.072Z,-0.50
2018-12-15T16:29:01.458Z,-0.60
2018-12-15T16:31:28.930Z,-0.60
2018-12-15T16:33:56.341Z,-0.60
2018-12-15T16:36:23.811Z,-0.70
2018-12-15T16:38:51.216Z,-0.80
2018-12-15T16:41:18.662Z,-0.70
2018-12-15T16:43:46.179Z,-0.70
2018-12-15T16:46:13.642Z,-0.60
2018-12-15T16:48:41.045Z,-0.60
2018-12-15T16:51:08.617Z,-0.70
2018-12-15T16:53:36.036Z,-0.60
2018-12-15T16:56:03.513Z,-0.70
2018-12-15T16:58:30.924Z,-0.80
2018-12-15T17:00:58.384Z,-0.80
2018-12-15T17:03:30.480Z,-0.80
2018-12-15T17:05:55.284Z,-0.80
2018-12-15T17:08:22.943Z,-0.80
2018-12-15T17:10:50.636Z,-0.80
2018-12-15T17:13:19.653Z,-0.90
2018-12-15T17:15:47.423Z,-0.90
2018-12-15T17:18:14.833Z,-0.90
2018-12-15T17:20:42.269Z,-0.90
2018-12-15T17:23:09.726Z,-0.80
2018-12-15T17:25:37.156Z,-0.90
2018-12-15T17:28:04.644Z,-0.80
2018-12-15T17:30:32.036Z,-0.90
2018-12-15T17:32:59.476Z,-1.00
2018-12-15T17:35:26.904Z,-0.90
2018-12-15T17:37:54.373Z,-0.90
2018-12-15T17:40:21.783Z,-1.10
2018-12-15T17:42:49.215Z,-1.10
2018-12-15T17:45:16.640Z,-1.20
2018-12-15T17:47:44.107Z,-1.30
2018-12-15T17:50:11.775Z,-1.30
2018-12-15T17:52:39.268Z,-1.20
2018-12-15T17:55:07.184Z,-1.40
2018-12-15T17:57:35.961Z,-1.40
2018-12-15T18:00:05.753Z,-1.50
2018-12-15T18:02:33.213Z,-1.60
2018-12-15T18:05:00.594Z,-1.50
2018-12-15T18:07:28.053Z,-1.50
2018-12-15T18:09:55.485Z,-1.50
2018-12-15T18:12:22.943Z,-1.60
2018-12-15T18:14:50.344Z,-1.50
2018-12-15T18:17:17.784Z,-1.60
2018-12-15T18:19:45.187Z,-1.60
2018-12-15T18:22:12.634Z,-1.60
2018-12-15T18:24:40.028Z,-1.70
2018-12-15T18:27:07.476Z,-1.70
2018-12-15T18:29:34.920Z,-1.90
2018-12-15T18:32:02.381Z,-1.90
2018-12-15T18:34:29.783Z,-1.90
2018-12-15T18:36:57.584Z,-1.90
2018-12-15T18:39:25.012Z,-1.90
2018-12-15T18:41:52.530Z,-1.90
2018-12-15T18:44:20.012Z,-1.80
2018-12-15T18:46:47.487Z,-1.90
2018-12-15T18:49:14.892Z,-1.80
2018-12-15T18:51:42.482Z,-1.80
2018-12-15T18:54:09.925Z,-1.80
2018-12-15T18:56:37.496Z,-1.90
2018-12-15T18:59:05.038Z,-1.90
2018-12-15T19:01:32.495Z,-1.80
2018-12-15T19:03:59.895Z,-1.90
2018-12-15T19:06:27.352Z,-1.80
2018-12-15T19:08:54.785Z,-1.80
2018-12-15T19:11:22.258Z,-1.70
2018-12-15T19:13:49.678Z,-1.80
2018-12-15T19:16:17.154Z,-1.80
2018-12-15T19:18:44.692Z,-1.80
2018-12-15T19:21:12.114Z,-1.80
2018-12-15T19:23:39.576Z,-1.80
2018-12-15T19:26:07.036Z,-1.80
2018-12-15T19:28:34.544Z,-1.80
2018-12-15T19:31:01.943Z,-1.80
2018-12-15T19:33:29.407Z,-1.90
2018-12-15T19:35:56.884Z,-1.90
2018-12-15T19:38:24.374Z,-1.90
2018-12-15T19:40:51.785Z,-1.80
2018-12-15T19:43:19.256Z,-1.80
2018-12-15T19:45:46.663Z,-1.90
2018-12-15T19:48:14.253Z,-2.00
2018-12-15T19:50:41.689Z,-2.30
2018-12-15T19:53:15.816Z,-2.30
2018-12-15T19:55:43.257Z,-2.20
2018-12-15T19:58:10.737Z,-2.20
2018-12-15T20:00:38.146Z,-2.20
2018-12-15T20:03:05.599Z,-2.10
2018-12-15T20:05:33.000Z,-2.20
2018-12-15T20:08:00.468Z,-2.20
2018-12-15T20:10:27.871Z,-2.10
2018-12-15T20:12:55.311Z,-2.10
2018-12-15T20:15:22.713Z,-2.00
2018-12-15T20:17:50.193Z,-2.00
2018-12-15T20:20:17.835Z,-2.10
2018-12-15T20:22:45.316Z,-2.20
2018-12-15T20:25:12.762Z,-2.20
2018-12-15T20:27:40.224Z,-2.30
2018-12-15T20:30:08.245Z,-2.30
2018-12-15T20:32:35.695Z,-2.40
2018-12-15T20:35:03.253Z,-2.30
2018-12-15T20:37:30.741Z,-2.30
2018-12-15T20:39:58.176Z,-2.20
2018-12-15T20:42:25.635Z,-2.10
2018-12-15T20:44:53.064Z,-2.10
2018-12-15T20:47:20.564Z,-2.10
2018-12-15T20:49:48.078Z,-2.00
2018-12-15T20:52:15.511Z,-1.90
2018-12-15T20:54:42.903Z,-1.90
2018-12-15T20:57:10.363Z,-1.90
2018-12-15T20:59:37.787Z,-1.90
2018-12-15T21:02:05.383Z,-2.00
2018-12-15T21:04:32.776Z,-2.00
2018-12-15T21:07:00.228Z,-1.90
2018-12-15T21:09:27.625Z,-1.80
2018-12-15T21:11:55.172Z,-1.80
2018-12-15T21:14:22.564Z,-1.70
2018-12-15T21:16:50.000Z,-1.60
2018-12-15T21:19:17.451Z,-1.60
2018-12-15T21:21:49.508Z,-1.70
2018-12-15T21:24:14.792Z,-1.60
2018-12-15T21:26:42.203Z,-1.60
2018-12-15T21:29:09.790Z,-1.70
2018-12-15T21:31:39.552Z,-1.50
2018-12-15T21:34:08.073Z,-1.40
2018-12-15T21:36:36.407Z,-1.30
2018-12-15T21:39:05.951Z,-1.40
2018-12-15T21:41:33.336Z,-1.60
2018-12-15T21:44:00.854Z,-1.50
2018-12-15T21:46:28.297Z,-1.60
2018-12-15T21:48:56.034Z,-1.50
2018-12-15T21:51:23.461Z,-1.50
2018-12-15T21:53:50.928Z,-1.40
2018-12-15T21:56:18.328Z,-1.50
2018-12-15T21:58:45.855Z,-1.50
2018-12-15T22:01:13.267Z,-1.50
2018-12-15T22:03:40.736Z,-1.50
2018-12-15T22:06:08.134Z,-1.50
2018-12-15T22:08:35.586Z,-1.50
2018-12-15T22:11:03.115Z,-1.50
2018-12-15T22:13:30.524Z,-1.50
2018-12-15T22:15:57.932Z,-1.50
2018-12-15T22:18:25.356Z,-1.50
2018-12-15T22:20:53.088Z,-1.50
2018-12-15T22:23:20.499Z,-1.50
2018-12-15T22:25:47.909Z,-1.40
2018-12-15T22:28:15.337Z,-1.50
2018-12-15T22:30:42.727Z,-1.50
2018-12-15T22:33:10.178Z,-1.60
2018-12-15T22:35:37.609Z,-1.40
2018-12-15T22:38:05.056Z,-1.40
2018-12-15T22:40:32.440Z,-1.50
2018-12-15T22:42:59.854Z,-1.50
2018-12-15T22:45:27.268Z,-1.50
2018-12-15T22:47:54.716Z,-1.50
2018-12-15T22:50:22.301Z,-1.50
2018-12-15T22:52:49.724Z,-1.40
2018-12-15T22:55:17.126Z,-1.50
2018-12-15T22:57:45.017Z,-1.40
2018-12-15T23:00:12.560Z,-1.40
2018-12-15T23:02:40.224Z,-1.40
2018-12-15T23:05:07.800Z,-1.40
2018-12-15T23:07:35.213Z,-1.30
2018-12-15T23:10:02.919Z,-1.30
2018-12-15T23:12:30.361Z,-1.30
2018-12-15T23:14:57.739Z,-1.20
2018-12-15T23:17:25.151Z,-1.30
2018-12-15T23:19:52.548Z,-1.40
2018-12-15T23:22:20.920Z,-1.30
2018-12-15T23:24:48.331Z,-1.30
2018-12-15T23:27:15.720Z,-1.30
2018-12-15T23:29:43.132Z,-1.20
2018-12-15T23:32:10.528Z,-1.30
2018-12-15T23:34:37.956Z,-1.40
2018-12-15T23:37:05.371Z,-1.40
2018-12-15T23:39:33.643Z,-1.40
2018-12-15T23:42:01.089Z,-1.50
2018-12-15T23:44:29.416Z,-1.40
2018-12-15T23:46:56.880Z,-1.30
2018-12-15T23:49:24.342Z,-1.40
2018-12-15T23:51:51.703Z,-1.40
2018-12-15T23:54:19.119Z,-1.40
2018-12-15T23:56:46.517Z,-1.40
2018-12-15T23:59:13.928Z,-1.30
